Terminal Aerodrome Forecast
Issued by NWS

Home | Current Version | Previous Version | Text Only | Print | Product List | Glossary On
Versions: 1 2 3 4 5 6 7 8 9 10 11 12 13 14 15 16 17 18 19 20 21 22 23 24 25
000
FTUS43 KDLH 041144
TAFHIB
TAF
KHIB 041144Z 0412/0512 14008KT 2SM -SN BR BKN008 OVC022
     FM041400 15007KT 1SM -SN BR OVC008
      TEMPO 0415/0417 1/2SM SN FG OVC006
     FM042000 19006KT 2SM -SN BR OVC008
     FM050200 24006KT 4SM -SHSN BR OVC010
     FM051000 25005KT 6SM BR SCT010 OVC016=

USA.gov is the U.S. government's official web portal to all federal, state and local government web resources and services.